Time;durP1;ratioP1;P1;durP2;ratioP2;P2;SDS_P1;SDS_P2;PMS_P1;PMS_P2;Temp;Humidity;BMP_temperature;BMP_pressure;BME280_temperature;BME280_humidity;BME280_pressure;Samples;Min_cycle;Max_cycle;Signal;HPM_P1;HPM_P2
2023/05/27 00:08:43;;;;;;;10.45;3.22;;;;;;;10.95;56.08;101138.00;30974425;28;96985;-65
2023/05/27 00:23:47;;;;;;;15.32;4.30;;;;;;;10.75;56.65;101134.59;30984634;28;96641;-66
2023/05/27 00:38:47;;;;;;;27.70;4.53;;;;;;;10.56;57.13;101143.50;30993169;28;97502;-67
2023/05/27 00:53:48;;;;;;;16.67;4.10;;;;;;;10.41;57.51;101143.16;30991574;28;97428;-68
2023/05/27 01:09:03;;;;;;;11.30;2.88;;;;;;;10.24;58.45;101134.91;30989987;28;96710;-67
2023/05/27 01:24:05;;;;;;;11.13;3.17;;;;;;;10.05;58.58;101141.13;30988830;28;97515;-68
2023/05/27 01:39:10;;;;;;;10.10;3.50;;;;;;;9.87;59.21;101148.13;30987167;28;97365;-68
2023/05/27 01:54:11;;;;;;;12.17;3.23;;;;;;;9.65;59.80;101153.63;30985855;28;96732;-66
2023/05/27 02:09:12;;;;;;;14.90;3.90;;;;;;;9.45;59.99;101147.47;30984445;28;101641;-68
2023/05/27 02:24:13;;;;;;;9.67;2.90;;;;;;;9.29;60.96;101152.50;30983377;28;96601;-71
2023/05/27 02:39:13;;;;;;;11.52;3.88;;;;;;;9.14;61.40;101155.56;30981397;28;100616;-70
2023/05/27 02:54:14;;;;;;;14.95;4.40;;;;;;;9.04;62.06;101161.84;30980302;28;96602;-68
2023/05/27 03:09:14;;;;;;;14.88;4.97;;;;;;;8.98;62.26;101172.03;30978664;28;97458;-67
2023/05/27 03:24:15;;;;;;;12.73;4.13;;;;;;;9.08;62.62;101172.03;30977310;28;107390;-68
2023/05/27 03:39:16;;;;;;;14.18;3.60;;;;;;;9.22;62.93;101188.59;30976580;28;98763;-68
2023/05/27 03:54:16;;;;;;;11.73;3.47;;;;;;;9.41;63.11;101201.09;30980540;28;96699;-67
2023/05/27 04:09:17;;;;;;;10.70;3.10;;;;;;;9.72;63.05;101224.88;30995594;28;106817;-67
2023/05/27 04:24:17;;;;;;;10.82;3.88;;;;;;;10.05;62.71;101225.47;30993044;28;96674;-66
2023/05/27 04:39:18;;;;;;;12.07;4.00;;;;;;;10.45;62.67;101227.94;30991799;28;96824;-64
2023/05/27 04:54:19;;;;;;;14.83;4.07;;;;;;;10.86;62.17;101233.00;30991012;28;96801;-67
2023/05/27 05:09:21;;;;;;;13.25;4.10;;;;;;;11.33;61.09;101229.41;30989417;28;96889;-68
2023/05/27 05:24:21;;;;;;;13.57;4.30;;;;;;;11.80;60.25;101236.41;30987492;28;96590;-66
2023/05/27 05:39:22;;;;;;;15.63;3.63;;;;;;;12.43;59.42;101239.94;30986795;28;96835;-68
2023/05/27 05:54:22;;;;;;;11.93;3.05;;;;;;;13.09;57.87;101251.00;30984350;28;96774;-65
2023/05/27 06:09:23;;;;;;;9.27;2.80;;;;;;;13.74;55.90;101250.38;30983534;28;103107;-68
2023/05/27 06:24:23;;;;;;;10.45;2.47;;;;;;;14.42;53.25;101261.78;30981256;28;96623;-69
2023/05/27 06:39:23;;;;;;;6.25;1.70;;;;;;;15.27;50.00;101248.78;30979931;28;101436;-66
2023/05/27 06:54:24;;;;;;;8.85;1.92;;;;;;;16.04;47.29;101266.81;30979515;28;96704;-68
2023/05/27 07:09:24;;;;;;;7.80;2.28;;;;;;;16.65;43.96;101263.22;30977673;28;97452;-67
2023/05/27 07:24:25;;;;;;;6.43;2.22;;;;;;;17.36;41.99;101252.00;30976148;28;97040;-68
2023/05/27 07:39:25;;;;;;;7.47;1.90;;;;;;;18.38;40.48;101245.53;30997807;28;96678;-68
2023/05/27 07:54:26;;;;;;;5.13;1.52;;;;;;;19.09;37.20;101238.31;30996552;28;97084;-67
2023/05/27 08:09:27;;;;;;;8.40;2.50;;;;;;;19.81;36.53;101224.41;30994274;28;96786;-64
2023/05/27 08:24:28;;;;;;;6.05;1.70;;;;;;;20.71;34.17;101218.50;30993623;28;96745;-65
2023/05/27 08:39:28;;;;;;;;;;;;;;;21.26;32.21;101202.69;30992879;28;96732;-65
2023/05/27 08:54:30;;;;;;;4.90;1.70;;;;;;;22.50;31.33;101204.06;30991703;28;97709;-65
2023/05/27 09:09:31;;;;;;;4.13;1.20;;;;;;;22.86;29.93;101204.31;30988697;28;96817;-68
2023/05/27 09:24:31;;;;;;;7.07;2.00;;;;;;;23.79;29.16;101188.59;30987732;28;96708;-65
2023/05/27 09:39:34;;;;;;;4.93;2.00;;;;;;;24.71;27.92;101184.47;30987021;28;97117;-69
2023/05/27 09:54:36;;;;;;;9.70;2.07;;;;;;;25.66;27.33;101174.00;30983390;28;97136;-69
2023/05/27 10:09:36;;;;;;;9.17;2.50;;;;;;;25.52;25.69;101172.69;30982373;28;97578;-68
2023/05/27 10:24:39;;;;;;;6.55;2.08;;;;;;;26.09;25.41;101147.09;30981781;28;96864;-69
2023/05/27 10:39:40;;;;;;;4.83;1.63;;;;;;;26.15;24.61;101137.13;30979525;28;96808;-68
2023/05/27 10:54:41;;;;;;;6.00;1.92;;;;;;;26.65;23.49;101130.63;30979972;28;97422;-67
2023/05/27 11:09:46;;;;;;;4.97;1.60;;;;;;;27.26;22.60;101132.41;30976088;28;96900;-68
2023/05/27 11:24:59;;;;;;;6.97;2.07;;;;;;;26.92;21.09;101115.38;30976278;28;97706;-68
2023/05/27 11:40:00;;;;;;;4.83;1.83;;;;;;;26.37;20.61;101106.25;30976497;28;97096;-68
2023/05/27 11:55:00;;;;;;;7.20;1.47;;;;;;;26.08;20.82;101088.16;30973888;28;97553;-67
2023/05/27 12:10:01;;;;;;;5.30;1.42;;;;;;;26.37;20.79;101084.38;30972874;28;102217;-67
2023/05/27 12:25:01;;;;;;;4.60;1.50;;;;;;;26.25;20.80;101081.81;30991666;28;96801;-67
2023/05/27 12:40:04;;;;;;;4.85;1.88;;;;;;;26.21;21.14;101062.34;30990900;28;96652;-66
2023/05/27 12:55:05;;;;;;;3.80;1.30;;;;;;;25.94;21.24;101049.41;30990854;28;97548;-67
2023/05/27 13:10:13;;;;;;;5.40;1.70;;;;;;;25.20;21.87;101045.00;30989864;28;97160;-68
2023/05/27 13:25:14;;;;;;;5.83;1.50;;;;;;;25.33;22.50;101017.44;30987394;28;96720;-67
2023/05/27 13:40:14;;;;;;;4.35;1.50;;;;;;;24.87;22.68;101007.66;30987022;28;96754;-67
2023/05/27 13:55:15;;;;;;;4.55;1.83;;;;;;;24.53;23.42;100992.03;30984737;28;97452;-67
2023/05/27 14:10:15;;;;;;;4.53;1.35;;;;;;;24.04;23.25;100984.28;30983763;28;96844;-68
2023/05/27 14:25:16;;;;;;;2.17;1.20;;;;;;;23.67;23.83;100976.41;30982363;28;97402;-67
2023/05/27 14:40:17;;;;;;;2.90;1.40;;;;;;;22.89;23.98;100957.44;30979329;28;96655;-69
2023/05/27 14:55:17;;;;;;;;;;;;;;;22.68;24.66;100944.41;30978641;28;97458;-67
2023/05/27 15:10:17;;;;;;;3.13;1.40;;;;;;;22.29;24.99;100939.31;30978354;28;96802;-68
2023/05/27 15:25:18;;;;;;;6.07;1.13;;;;;;;21.92;25.28;100921.19;30976670;28;102385;-65
2023/05/27 15:40:18;;;;;;;4.13;1.50;;;;;;;21.61;25.86;100914.06;30975994;28;96712;-66
2023/05/27 15:55:18;;;;;;;5.40;1.57;;;;;;;21.29;26.49;100896.03;30985742;28;97008;-66
2023/05/27 16:10:22;;;;;;;5.17;1.40;;;;;;;21.02;26.70;100891.94;30993371;28;113094;-65
2023/05/27 16:25:23;;;;;;;5.67;1.37;;;;;;;20.74;27.29;100872.38;30993186;28;97622;-65
2023/05/27 16:40:23;;;;;;;3.67;1.37;;;;;;;20.31;27.59;100874.97;30991580;28;96776;-65
2023/05/27 16:55:23;;;;;;;5.50;1.63;;;;;;;19.96;28.39;100854.56;30990941;28;96708;-66
2023/05/27 17:10:24;;;;;;;4.65;1.65;;;;;;;19.59;29.21;100844.31;30988056;28;109080;-68
2023/05/27 17:25:24;;;;;;;4.25;1.77;;;;;;;19.12;29.86;100835.50;30986829;28;96911;-67
2023/05/27 17:40:25;;;;;;;5.38;1.95;;;;;;;18.69;30.72;100844.06;30985989;28;97455;-67
2023/05/27 17:55:25;;;;;;;5.72;1.80;;;;;;;18.21;31.82;100837.78;30984905;28;96845;-67
2023/05/27 18:10:27;;;;;;;7.97;1.60;;;;;;;17.71;32.84;100824.56;30982039;28;107093;-67
2023/05/27 18:25:27;;;;;;;;;;;;;;;17.15;34.06;100825.53;30983257;28;96711;-67
2023/05/27 18:40:29;;;;;;;8.90;2.63;;;;;;;16.54;34.81;100831.53;30981620;28;96708;-67
2023/05/27 18:55:29;;;;;;;4.60;2.07;;;;;;;15.99;36.57;100844.63;30979420;28;96780;-67
2023/05/27 19:10:29;;;;;;;7.18;2.80;;;;;;;15.47;37.48;100849.94;30976386;28;104013;-69
2023/05/27 19:25:30;;;;;;;10.35;4.10;;;;;;;15.05;38.74;100865.69;30974517;28;96718;-69
2023/05/27 19:40:31;;;;;;;13.55;5.00;;;;;;;14.63;39.69;100867.06;30976975;28;97469;-66
2023/05/27 19:55:32;;;;;;;11.65;3.92;;;;;;;14.28;40.73;100868.47;30975026;28;97489;-67
2023/05/27 20:10:32;;;;;;;9.20;3.83;;;;;;;13.90;42.12;100854.97;30971826;28;97153;-67
2023/05/27 20:25:32;;;;;;;9.77;3.75;;;;;;;13.59;43.14;100866.53;30973275;28;96876;-66
2023/05/27 20:40:33;;;;;;;9.65;3.55;;;;;;;13.28;43.92;100861.91;30981384;28;112151;-67
2023/05/27 20:55:35;;;;;;;9.13;3.78;;;;;;;13.05;44.48;100859.94;30989615;28;109685;-66
2023/05/27 21:10:35;;;;;;;10.83;4.17;;;;;;;12.79;45.49;100857.47;30989419;28;97091;-64
2023/05/27 21:25:35;;;;;;;9.85;3.75;;;;;;;12.51;46.54;100853.31;30987857;28;96679;-67
2023/05/27 21:40:36;;;;;;;7.28;4.07;;;;;;;12.25;46.46;100844.63;30987336;28;99576;-65
2023/05/27 21:55:36;;;;;;;10.32;3.92;;;;;;;11.93;46.84;100833.69;30986382;28;96855;-68
2023/05/27 22:10:36;;;;;;;6.57;3.13;;;;;;;11.65;48.26;100833.09;30984794;28;96870;-68
2023/05/27 22:25:37;;;;;;;5.57;2.65;;;;;;;11.35;48.20;100821.97;30983813;28;96737;-69
2023/05/27 22:40:37;;;;;;;22.48;11.95;;;;;;;11.14;48.73;100811.66;30982437;28;99786;-67
2023/05/27 22:55:37;;;;;;;6.38;4.18;;;;;;;10.89;49.40;100800.88;30980733;28;96781;-67
2023/05/27 23:10:38;;;;;;;9.70;5.18;;;;;;;10.66;49.99;100795.22;30978708;28;102165;-66
2023/05/27 23:25:38;;;;;;;7.85;4.78;;;;;;;10.44;50.59;100780.59;30978856;28;97471;-68
2023/05/27 23:40:38;;;;;;;7.03;3.75;;;;;;;10.21;50.43;100774.88;30977218;28;101668;-66
2023/05/27 23:55:39;;;;;;;6.10;2.92;;;;;;;10.06;50.99;100759.47;30975546;28;97333;-66
